Verona Island, Maine
Current Conditions -  °F | °C
As of 9:53 AM on Thursday 23 Oct 2014 (Local Time) from KBGR Reporting Station
Light Rain Light Rain  
Wind Chill: 50°   Ceiling: 1000
Heat Index: 50°   Visibility: 7mi
Dew Point: 47°   Wind: 16mph
Humidity: 89%   Direction: 30°NNE
Pressure: 29.93"   Gusts: NA
Location:  44.6408°N, 68.7455°W
Report Text: KBGR 231353Z 03014KT 7SM -RA OVC010 10/08 A2993 RMK AO2 CIG 007V015 SLP135 P0009 T01000083
Loading
Personal Weather Stations






























Interactive Weather Map
Tropical Storm Tracking
New forecast layout! Learn more

10-Day Weather Forecast

Advertisements
Track Severe Weather on mobile